createdAt,value
2023-11-11T00:00:21.605Z,8.10
2023-11-11T00:03:09.982Z,8.09
2023-11-11T00:05:38.139Z,8.07
2023-11-11T00:08:06.107Z,8.05
2023-11-11T00:10:34.924Z,8.02
2023-11-11T00:13:04.354Z,8.00
2023-11-11T00:15:34.964Z,7.99
2023-11-11T00:18:03.340Z,7.99
2023-11-11T00:20:31.530Z,7.98
2023-11-11T00:22:59.679Z,7.96
2023-11-11T00:25:27.686Z,7.96
2023-11-11T00:27:55.980Z,7.96
2023-11-11T00:30:24.100Z,7.97
2023-11-11T00:32:55.420Z,7.96
2023-11-11T00:35:23.528Z,7.94
2023-11-11T00:37:51.662Z,7.91
2023-11-11T00:40:19.648Z,7.89
2023-11-11T00:42:47.757Z,7.86
2023-11-11T00:45:16.015Z,7.82
2023-11-11T00:47:44.498Z,7.81
2023-11-11T00:50:12.634Z,7.80
2023-11-11T00:52:40.798Z,7.81
2023-11-11T00:55:09.182Z,7.82
2023-11-11T00:57:37.304Z,7.84
2023-11-11T01:00:06.617Z,7.86
2023-11-11T01:02:34.568Z,7.86
2023-11-11T01:05:02.493Z,7.86
2023-11-11T01:07:31.119Z,7.86
2023-11-11T01:10:00.010Z,7.86
2023-11-11T01:12:28.241Z,7.86
2023-11-11T01:14:56.494Z,7.86
2023-11-11T01:17:24.680Z,7.86
2023-11-11T01:19:52.718Z,7.86
2023-11-11T01:22:20.653Z,7.85
2023-11-11T01:24:49.021Z,7.85
2023-11-11T01:27:17.327Z,7.84
2023-11-11T01:29:45.267Z,7.84
2023-11-11T01:32:13.272Z,7.83
2023-11-11T01:34:41.404Z,7.82
2023-11-11T01:37:09.894Z,7.81
2023-11-11T01:39:38.142Z,7.81
2023-11-11T01:42:06.736Z,7.82
2023-11-11T01:44:34.746Z,7.82
2023-11-11T01:47:07.502Z,7.81
2023-11-11T01:49:36.097Z,7.79
2023-11-11T01:52:06.582Z,7.77
2023-11-11T01:54:36.181Z,7.76
2023-11-11T01:57:06.175Z,7.74
2023-11-11T01:59:36.807Z,7.72
2023-11-11T02:02:05.531Z,7.71
2023-11-11T02:04:34.948Z,7.69
2023-11-11T02:07:03.162Z,7.68
2023-11-11T02:09:31.256Z,7.68
2023-11-11T02:11:59.424Z,7.68
2023-11-11T02:14:27.693Z,7.68
2023-11-11T02:16:56.280Z,7.68
2023-11-11T02:19:24.346Z,7.68
2023-11-11T02:21:52.432Z,7.66
2023-11-11T02:24:22.530Z,7.63
2023-11-11T02:26:51.183Z,7.59
2023-11-11T02:29:19.140Z,7.55
2023-11-11T02:31:47.048Z,7.54
2023-11-11T02:34:15.289Z,7.51
2023-11-11T02:36:53.909Z,7.50
2023-11-11T02:39:28.912Z,7.49
2023-11-11T02:41:56.984Z,7.47
2023-11-11T02:44:26.241Z,7.46
2023-11-11T02:46:54.249Z,7.43
2023-11-11T02:49:22.855Z,7.41
2023-11-11T02:51:50.820Z,7.40
2023-11-11T02:54:18.991Z,7.39
2023-11-11T02:56:47.163Z,7.38
2023-11-11T02:59:15.235Z,7.36
2023-11-11T03:01:43.446Z,7.34
2023-11-11T03:04:13.499Z,7.32
2023-11-11T03:06:45.036Z,7.31
2023-11-11T03:09:13.369Z,7.30
2023-11-11T03:11:41.267Z,7.31
2023-11-11T03:14:09.493Z,7.31
2023-11-11T03:16:38.949Z,7.28
2023-11-11T03:19:08.076Z,7.27
2023-11-11T03:21:36.453Z,7.25
2023-11-11T03:24:06.026Z,7.24
2023-11-11T03:26:34.673Z,7.24
2023-11-11T03:29:03.054Z,7.24
2023-11-11T03:31:31.214Z,7.25
2023-11-11T03:33:59.694Z,7.26
2023-11-11T03:36:28.375Z,7.27
2023-11-11T03:38:56.415Z,7.27
2023-11-11T03:41:24.627Z,7.29
2023-11-11T03:43:53.010Z,7.30
2023-11-11T03:46:21.267Z,7.32
2023-11-11T03:48:49.343Z,7.31
2023-11-11T03:51:17.614Z,7.31
2023-11-11T03:53:45.583Z,7.29
2023-11-11T03:56:13.976Z,7.28
2023-11-11T03:58:42.275Z,7.26
2023-11-11T04:01:10.734Z,7.26
2023-11-11T04:03:40.995Z,7.27
2023-11-11T04:06:10.963Z,7.27
2023-11-11T04:08:41.008Z,7.27
2023-11-11T04:11:10.153Z,7.23
2023-11-11T04:13:42.102Z,7.20
2023-11-11T04:16:15.022Z,7.16
2023-11-11T04:18:43.340Z,7.13
2023-11-11T04:21:13.175Z,7.13
2023-11-11T04:23:44.252Z,7.12
2023-11-11T04:26:12.191Z,7.12
2023-11-11T04:28:44.246Z,7.12
2023-11-11T04:31:13.608Z,7.11
2023-11-11T04:33:41.554Z,7.12
2023-11-11T04:36:09.583Z,7.13
2023-11-11T04:38:38.686Z,7.13
2023-11-11T04:41:06.939Z,7.14
2023-11-11T04:43:36.172Z,7.14
2023-11-11T04:46:04.495Z,7.13
2023-11-11T04:48:32.687Z,7.12
2023-11-11T04:51:01.207Z,7.11
2023-11-11T04:53:29.472Z,7.11
2023-11-11T04:55:57.626Z,7.11
2023-11-11T04:58:25.935Z,7.10
2023-11-11T05:00:54.117Z,7.10
2023-11-11T05:03:22.348Z,7.10
2023-11-11T05:05:50.539Z,7.09
2023-11-11T05:08:18.787Z,7.10
2023-11-11T05:10:47.153Z,7.12
2023-11-11T05:13:16.014Z,7.11
2023-11-11T05:15:47.038Z,7.14
2023-11-11T05:18:15.466Z,7.16
2023-11-11T05:20:43.512Z,7.14
2023-11-11T05:23:11.895Z,7.14
2023-11-11T05:25:40.196Z,7.15
2023-11-11T05:28:08.811Z,7.15
2023-11-11T05:30:37.142Z,7.14
2023-11-11T05:33:06.682Z,7.13
2023-11-11T05:35:35.003Z,7.14
2023-11-11T05:38:03.038Z,7.16
2023-11-11T05:40:31.432Z,7.16
2023-11-11T05:43:01.642Z,7.16
2023-11-11T05:45:30.095Z,7.16
2023-11-11T05:47:58.254Z,7.17
2023-11-11T05:50:26.371Z,7.17
2023-11-11T05:52:54.509Z,7.19
2023-11-11T05:55:22.496Z,7.20
2023-11-11T05:57:50.675Z,7.21
2023-11-11T06:00:19.420Z,7.24
2023-11-11T06:02:47.696Z,7.25
2023-11-11T06:05:15.968Z,7.24
2023-11-11T06:07:43.973Z,7.24
2023-11-11T06:10:12.768Z,7.23
2023-11-11T06:12:41.082Z,7.22
2023-11-11T06:15:09.584Z,7.23
2023-11-11T06:17:37.942Z,7.26
2023-11-11T06:20:09.344Z,7.29
2023-11-11T06:22:37.555Z,7.32
2023-11-11T06:25:07.055Z,7.33
2023-11-11T06:27:35.885Z,7.35
2023-11-11T06:30:09.716Z,7.39
2023-11-11T06:32:38.050Z,7.42
2023-11-11T06:35:09.735Z,7.44
2023-11-11T06:37:37.988Z,7.47
2023-11-11T06:40:08.446Z,7.50
2023-11-11T06:42:41.962Z,7.53
2023-11-11T06:45:16.341Z,7.55
2023-11-11T06:47:44.788Z,7.58
2023-11-11T06:50:13.186Z,7.59
2023-11-11T06:52:41.338Z,7.59
2023-11-11T06:55:10.938Z,7.58
2023-11-11T06:57:38.985Z,7.59
2023-11-11T07:00:11.704Z,7.58
2023-11-11T07:02:39.895Z,7.61
2023-11-11T07:05:11.429Z,7.62
2023-11-11T07:07:42.985Z,7.65
2023-11-11T07:10:13.318Z,7.67
2023-11-11T07:12:42.427Z,7.70
2023-11-11T07:15:11.707Z,7.73
2023-11-11T07:17:42.963Z,7.75
2023-11-11T07:20:18.342Z,7.77
2023-11-11T07:22:46.909Z,7.78
2023-11-11T07:25:16.253Z,7.78
2023-11-11T07:27:45.077Z,7.80
2023-11-11T07:30:14.075Z,7.83
2023-11-11T07:32:53.211Z,7.86
2023-11-11T07:35:27.744Z,7.92
2023-11-11T07:37:56.329Z,7.95
2023-11-11T07:40:26.939Z,7.99
2023-11-11T07:42:58.075Z,8.04
2023-11-11T07:45:27.895Z,8.11
2023-11-11T07:47:56.983Z,8.19
2023-11-11T07:50:26.453Z,8.25
2023-11-11T07:52:56.663Z,8.31
2023-11-11T07:55:25.022Z,8.34
2023-11-11T08:00:25.849Z,8.43
2023-11-11T08:02:54.121Z,8.53
2023-11-11T08:05:24.671Z,8.67
2023-11-11T08:07:53.409Z,8.84
2023-11-11T08:10:22.977Z,8.94
2023-11-11T08:12:52.998Z,8.99
2023-11-11T08:15:21.686Z,9.08
2023-11-11T08:17:50.510Z,9.15
2023-11-11T08:20:19.886Z,9.22
2023-11-11T08:22:49.701Z,9.29
2023-11-11T08:25:17.872Z,9.36
2023-11-11T08:27:46.470Z,9.41
2023-11-11T08:30:14.711Z,9.47
2023-11-11T08:32:43.584Z,9.53
2023-11-11T08:35:15.866Z,9.60
2023-11-11T08:37:44.790Z,9.68
2023-11-11T08:40:14.695Z,9.74
2023-11-11T08:42:42.962Z,9.77
2023-11-11T08:45:14.905Z,9.80
2023-11-11T08:47:43.166Z,9.86
2023-11-11T08:50:13.153Z,9.89
2023-11-11T08:52:44.122Z,9.92
2023-11-11T08:55:13.267Z,9.94
2023-11-11T08:57:41.512Z,9.99
2023-11-11T09:00:13.283Z,10.04
2023-11-11T09:02:41.492Z,10.09
2023-11-11T09:05:11.125Z,10.11
2023-11-11T09:07:39.252Z,10.12
2023-11-11T09:10:07.849Z,10.12
2023-11-11T09:12:38.042Z,10.11
2023-11-11T09:15:06.706Z,10.09
2023-11-11T09:17:34.880Z,10.09
2023-11-11T09:20:03.004Z,10.11
2023-11-11T09:22:30.978Z,10.13
2023-11-11T09:24:59.215Z,10.12
2023-11-11T09:27:27.573Z,10.13
2023-11-11T09:29:55.656Z,10.15
2023-11-11T09:32:23.826Z,10.18
2023-11-11T09:34:52.009Z,10.20
2023-11-11T09:37:20.185Z,10.25
2023-11-11T09:39:48.393Z,10.31
2023-11-11T09:42:16.676Z,10.37
2023-11-11T09:47:19.712Z,10.52
2023-11-11T09:49:48.024Z,10.60
2023-11-11T09:52:17.392Z,10.67
2023-11-11T09:54:47.582Z,10.72
2023-11-11T09:57:18.363Z,10.76
2023-11-11T09:59:47.986Z,10.79
2023-11-11T10:02:16.723Z,10.80
2023-11-11T10:04:44.894Z,10.81
2023-11-11T10:07:13.758Z,10.83
2023-11-11T10:09:42.956Z,10.84
2023-11-11T10:12:11.497Z,10.86
2023-11-11T10:14:42.719Z,10.88
2023-11-11T10:17:12.584Z,10.90
2023-11-11T10:19:54.601Z,10.92
2023-11-11T10:22:27.409Z,10.95
2023-11-11T10:24:57.836Z,10.98
2023-11-11T10:27:29.042Z,11.02
2023-11-11T10:29:58.005Z,11.06
2023-11-11T10:32:28.874Z,11.10
2023-11-11T10:34:58.369Z,11.10
2023-11-11T10:37:26.512Z,11.10
2023-11-11T10:39:54.568Z,11.11
2023-11-11T10:42:23.164Z,11.11
2023-11-11T10:44:51.956Z,11.11
2023-11-11T10:47:20.269Z,11.12
2023-11-11T10:49:48.965Z,11.13
2023-11-11T10:52:20.212Z,11.14
2023-11-11T10:54:52.443Z,11.16
2023-11-11T10:57:21.705Z,11.17
2023-11-11T10:59:49.962Z,11.19
2023-11-11T11:02:19.395Z,11.20
2023-11-11T11:04:54.927Z,11.23
2023-11-11T11:07:29.364Z,11.27
2023-11-11T11:10:04.641Z,11.30
2023-11-11T11:12:39.752Z,11.31
2023-11-11T11:15:14.447Z,11.32
2023-11-11T11:17:45.794Z,11.32
2023-11-11T11:20:19.274Z,11.33
2023-11-11T11:22:50.720Z,11.33
2023-11-11T11:25:40.250Z,11.33
2023-11-11T11:28:11.176Z,11.33
2023-11-11T11:30:59.707Z,11.33
2023-11-11T11:33:32.569Z,11.31
2023-11-11T11:36:05.680Z,11.30
2023-11-11T11:38:39.837Z,11.30
2023-11-11T11:41:20.663Z,11.30
2023-11-11T11:43:54.435Z,11.30
2023-11-11T11:46:23.108Z,11.30
2023-11-11T11:48:52.291Z,11.32
2023-11-11T11:51:21.349Z,11.34
2023-11-11T11:53:54.704Z,11.36
2023-11-11T11:56:31.222Z,11.39
2023-11-11T11:59:03.367Z,11.42
2023-11-11T12:01:35.630Z,11.43
2023-11-11T12:04:05.160Z,11.43
2023-11-11T12:06:40.017Z,11.44
2023-11-11T12:09:13.359Z,11.42
2023-11-11T12:11:41.456Z,11.43
2023-11-11T12:14:10.806Z,11.45
2023-11-11T12:16:44.360Z,11.46
2023-11-11T12:19:18.273Z,11.50
2023-11-11T12:21:48.829Z,11.50
2023-11-11T12:24:18.384Z,11.50
2023-11-11T12:26:50.060Z,11.51
2023-11-11T12:29:20.373Z,11.51
2023-11-11T12:31:49.659Z,11.50
2023-11-11T12:34:26.196Z,11.47
2023-11-11T12:36:55.247Z,11.45
2023-11-11T12:39:26.650Z,11.45
2023-11-11T12:41:58.271Z,11.47
2023-11-11T12:44:27.413Z,11.48
2023-11-11T12:47:00.075Z,11.48
2023-11-11T12:49:29.895Z,11.47
2023-11-11T12:52:00.813Z,11.45
2023-11-11T12:54:32.809Z,11.44
2023-11-11T12:57:01.771Z,11.42
2023-11-11T12:59:29.831Z,11.39
2023-11-11T13:02:02.322Z,11.36
2023-11-11T13:04:34.366Z,11.34
2023-11-11T13:07:02.846Z,11.31
2023-11-11T13:09:42.940Z,11.25
2023-11-11T13:12:12.055Z,11.21
2023-11-11T13:14:44.805Z,11.17
2023-11-11T13:17:13.643Z,11.15
2023-11-11T13:19:41.901Z,11.12
2023-11-11T13:22:10.808Z,11.09
2023-11-11T13:24:39.262Z,11.07
2023-11-11T13:27:08.835Z,11.03
2023-11-11T13:29:37.307Z,10.98
2023-11-11T13:32:05.999Z,10.94
2023-11-11T13:34:34.936Z,10.88
2023-11-11T13:37:12.868Z,10.85
2023-11-11T13:39:52.741Z,10.83
2023-11-11T13:42:22.728Z,10.80
2023-11-11T13:44:51.544Z,10.78
2023-11-11T13:47:21.610Z,10.76
2023-11-11T13:49:49.705Z,10.70
2023-11-11T13:52:17.745Z,10.65
2023-11-11T13:54:46.103Z,10.63
2023-11-11T13:57:16.750Z,10.57
2023-11-11T13:59:44.912Z,10.53
2023-11-11T14:02:13.761Z,10.50
2023-11-11T14:04:47.142Z,10.47
2023-11-11T14:07:15.315Z,10.47
2023-11-11T14:09:43.323Z,10.47
2023-11-11T14:12:13.608Z,10.47
2023-11-11T14:14:43.044Z,10.47
2023-11-11T14:17:23.734Z,10.46
2023-11-11T14:19:53.473Z,10.45
2023-11-11T14:22:23.603Z,10.42
2023-11-11T14:24:51.763Z,10.40
2023-11-11T14:27:19.852Z,10.38
2023-11-11T14:29:48.614Z,10.35
2023-11-11T14:32:20.522Z,10.31
2023-11-11T14:34:48.617Z,10.27
2023-11-11T14:37:16.662Z,10.22
2023-11-11T14:39:46.666Z,10.19
2023-11-11T14:42:15.754Z,10.17
2023-11-11T14:44:43.808Z,10.16
2023-11-11T14:47:12.133Z,10.16
2023-11-11T14:49:40.229Z,10.16
2023-11-11T14:52:10.908Z,10.15
2023-11-11T14:54:41.608Z,10.15
2023-11-11T14:57:13.607Z,10.14
2023-11-11T14:59:41.653Z,10.11
2023-11-11T15:02:09.922Z,10.08
2023-11-11T15:04:38.215Z,10.07
2023-11-11T15:07:06.750Z,10.06
2023-11-11T15:09:34.985Z,10.06
2023-11-11T15:12:02.973Z,10.05
2023-11-11T15:14:31.207Z,10.04
2023-11-11T15:17:01.366Z,10.03
2023-11-11T15:19:29.514Z,10.01
2023-11-11T15:21:57.975Z,10.00
2023-11-11T15:24:29.543Z,9.98
2023-11-11T15:26:57.461Z,9.96
2023-11-11T15:29:25.374Z,9.94
2023-11-11T15:31:53.372Z,9.93
2023-11-11T15:34:21.651Z,9.92
2023-11-11T15:36:50.201Z,9.91
2023-11-11T15:39:24.026Z,9.89
2023-11-11T15:41:52.502Z,9.88
2023-11-11T15:44:20.494Z,9.86
2023-11-11T15:46:51.569Z,9.84
2023-11-11T15:49:21.445Z,9.83
2023-11-11T15:51:51.063Z,9.82
2023-11-11T15:54:19.191Z,9.77
2023-11-11T15:56:49.682Z,9.75
2023-11-11T15:59:19.090Z,9.72
2023-11-11T16:01:47.371Z,9.65
2023-11-11T16:04:16.647Z,9.60
2023-11-11T16:06:44.575Z,9.56
2023-11-11T16:09:18.014Z,9.53
2023-11-11T16:11:46.382Z,9.53
2023-11-11T16:14:14.597Z,9.52
2023-11-11T16:16:42.818Z,9.53
2023-11-11T16:19:11.144Z,9.53
2023-11-11T16:21:39.270Z,9.53
2023-11-11T16:24:20.496Z,9.55
2023-11-11T16:26:55.766Z,9.56
2023-11-11T16:29:23.963Z,9.58
2023-11-11T16:31:52.323Z,9.60
2023-11-11T16:34:22.346Z,9.62
2023-11-11T16:36:50.525Z,9.63
2023-11-11T16:39:20.433Z,9.63
2023-11-11T16:41:52.279Z,9.61
2023-11-11T16:44:22.028Z,9.59
2023-11-11T16:46:50.114Z,9.54
2023-11-11T16:49:18.232Z,9.51
2023-11-11T16:51:46.967Z,9.50
2023-11-11T16:54:15.155Z,9.50
2023-11-11T16:56:43.628Z,9.48
2023-11-11T16:59:13.162Z,9.44
2023-11-11T17:01:41.473Z,9.42
2023-11-11T17:04:10.520Z,9.43
2023-11-11T17:06:38.620Z,9.47
2023-11-11T17:09:12.265Z,9.46
2023-11-11T17:11:44.171Z,9.45
2023-11-11T17:14:12.758Z,9.43
2023-11-11T17:16:42.268Z,9.44
2023-11-11T17:19:10.708Z,9.43
2023-11-11T17:21:38.801Z,9.40
2023-11-11T17:24:07.821Z,9.38
2023-11-11T17:26:38.361Z,9.38
2023-11-11T17:29:06.470Z,9.38
2023-11-11T17:31:35.044Z,9.37
2023-11-11T17:34:03.300Z,9.35
2023-11-11T17:36:32.717Z,9.33
2023-11-11T17:39:00.983Z,9.30
2023-11-11T17:41:29.083Z,9.29
2023-11-11T17:43:57.586Z,9.29
2023-11-11T17:46:25.630Z,9.32
2023-11-11T17:48:54.879Z,9.35
2023-11-11T17:51:23.548Z,9.36
2023-11-11T17:53:51.930Z,9.37
2023-11-11T17:56:24.030Z,9.35
2023-11-11T17:58:52.597Z,9.34
2023-11-11T18:01:21.058Z,9.33
2023-11-11T18:03:49.492Z,9.33
2023-11-11T18:06:17.751Z,9.34
2023-11-11T18:08:47.074Z,9.32
2023-11-11T18:11:15.582Z,9.31
2023-11-11T18:13:43.705Z,9.29
2023-11-11T18:16:18.758Z,9.29
2023-11-11T18:18:47.516Z,9.29
2023-11-11T18:21:16.926Z,9.29
2023-11-11T18:23:47.741Z,9.28
2023-11-11T18:26:17.395Z,9.25
2023-11-11T18:28:47.712Z,9.20
2023-11-11T18:31:18.503Z,9.15
2023-11-11T18:33:46.902Z,9.11
2023-11-11T18:36:14.934Z,9.09
2023-11-11T18:38:44.290Z,9.07
2023-11-11T18:41:12.821Z,9.04
2023-11-11T18:43:40.920Z,9.02
2023-11-11T18:46:15.556Z,8.98
2023-11-11T18:48:43.626Z,8.92
2023-11-11T18:51:11.758Z,8.90
2023-11-11T18:53:40.079Z,8.89
2023-11-11T18:56:08.409Z,8.86
2023-11-11T18:58:36.610Z,8.81
2023-11-11T19:01:05.950Z,8.77
2023-11-11T19:03:36.071Z,8.74
2023-11-11T19:06:05.404Z,8.73
2023-11-11T19:08:33.469Z,8.72
2023-11-11T19:11:01.770Z,8.69
2023-11-11T19:13:29.655Z,8.68
2023-11-11T19:15:58.424Z,8.64
2023-11-11T19:18:26.408Z,8.58
2023-11-11T19:20:54.400Z,8.57
2023-11-11T19:23:23.045Z,8.57
2023-11-11T19:25:51.522Z,8.59
2023-11-11T19:28:19.474Z,8.61
2023-11-11T19:30:47.622Z,8.63
2023-11-11T19:33:16.140Z,8.65
2023-11-11T19:35:44.283Z,8.70
2023-11-11T19:38:12.392Z,8.74
2023-11-11T19:40:41.402Z,8.74
2023-11-11T19:43:09.569Z,8.75
2023-11-11T19:45:38.894Z,8.77
2023-11-11T19:48:07.331Z,8.77
2023-11-11T19:50:35.317Z,8.75
2023-11-11T19:53:03.302Z,8.72
2023-11-11T19:55:31.267Z,8.69
2023-11-11T19:57:59.730Z,8.67
2023-11-11T20:00:28.099Z,8.66
2023-11-11T20:02:56.023Z,8.63
2023-11-11T20:05:25.932Z,8.62
2023-11-11T20:07:54.270Z,8.59
2023-11-11T20:10:22.348Z,8.57
2023-11-11T20:12:55.222Z,8.57
2023-11-11T20:15:23.516Z,8.57
2023-11-11T20:17:51.794Z,8.58
2023-11-11T20:20:19.853Z,8.59
2023-11-11T20:22:48.219Z,8.58
2023-11-11T20:25:24.562Z,8.57
2023-11-11T20:27:56.388Z,8.55
2023-11-11T20:30:26.697Z,8.53
2023-11-11T20:32:54.924Z,8.53
2023-11-11T20:35:23.039Z,8.53
2023-11-11T20:37:51.032Z,8.50
2023-11-11T20:40:19.580Z,8.47
2023-11-11T20:42:51.670Z,8.44
2023-11-11T20:45:19.630Z,8.43
2023-11-11T20:47:47.700Z,8.44
2023-11-11T20:50:16.484Z,8.45
2023-11-11T20:52:45.869Z,8.46
2023-11-11T20:55:15.345Z,8.47
2023-11-11T20:57:43.631Z,8.45
2023-11-11T21:00:13.455Z,8.40
2023-11-11T21:02:42.415Z,8.37
2023-11-11T21:05:19.124Z,8.32
2023-11-11T21:07:47.472Z,8.28
2023-11-11T21:10:17.910Z,8.24
2023-11-11T21:12:50.853Z,8.24
2023-11-11T21:15:22.419Z,8.26
2023-11-11T21:17:51.834Z,8.28
2023-11-11T21:20:19.813Z,8.29
2023-11-11T21:22:51.284Z,8.32
2023-11-11T21:25:21.796Z,8.35
2023-11-11T21:27:49.933Z,8.39
2023-11-11T21:30:18.482Z,8.42
2023-11-11T21:32:47.332Z,8.45
2023-11-11T21:35:15.412Z,8.47
2023-11-11T21:37:43.516Z,8.46
2023-11-11T21:40:12.127Z,8.38
2023-11-11T21:42:40.382Z,8.31
2023-11-11T21:45:08.638Z,8.27
2023-11-11T21:47:38.000Z,8.25
2023-11-11T21:50:06.908Z,8.26
2023-11-11T21:52:38.147Z,8.28
2023-11-11T21:55:07.150Z,8.28
2023-11-11T21:57:37.753Z,8.27
2023-11-11T22:00:11.081Z,8.27
2023-11-11T22:02:39.323Z,8.28
2023-11-11T22:05:08.159Z,8.28
2023-11-11T22:07:36.207Z,8.27
2023-11-11T22:10:06.699Z,8.26
2023-11-11T22:12:34.703Z,8.20
2023-11-11T22:15:03.610Z,8.14
2023-11-11T22:17:33.202Z,8.10
2023-11-11T22:20:01.914Z,8.06
2023-11-11T22:22:29.874Z,8.04
2023-11-11T22:24:57.806Z,7.99
2023-11-11T22:27:27.110Z,7.96
2023-11-11T22:29:55.320Z,7.95
2023-11-11T22:32:24.187Z,7.94
2023-11-11T22:34:52.056Z,7.92
2023-11-11T22:37:20.823Z,7.87
2023-11-11T22:39:49.232Z,7.83
2023-11-11T22:42:17.122Z,7.79
2023-11-11T22:44:45.064Z,7.73
2023-11-11T22:47:13.369Z,7.71
2023-11-11T22:49:41.792Z,7.67
2023-11-11T22:52:09.916Z,7.61
2023-11-11T22:54:37.849Z,7.51
2023-11-11T22:57:05.938Z,7.43
2023-11-11T22:59:34.022Z,7.35
2023-11-11T23:02:02.020Z,7.30
2023-11-11T23:04:30.106Z,7.27
2023-11-11T23:06:58.037Z,7.27
2023-11-11T23:09:26.016Z,7.26
2023-11-11T23:11:55.045Z,7.27
2023-11-11T23:14:23.043Z,7.21
2023-11-11T23:16:51.359Z,7.15
2023-11-11T23:19:19.473Z,7.08
2023-11-11T23:21:47.734Z,6.98
2023-11-11T23:24:15.860Z,6.90
2023-11-11T23:26:44.279Z,6.80
2023-11-11T23:29:13.081Z,6.71
2023-11-11T23:31:43.312Z,6.61
2023-11-11T23:34:12.457Z,6.53
2023-11-11T23:36:40.564Z,6.48
2023-11-11T23:39:09.289Z,6.42
2023-11-11T23:41:37.485Z,6.34
2023-11-11T23:44:10.103Z,6.30
2023-11-11T23:46:43.963Z,6.25
2023-11-11T23:49:12.561Z,6.21
2023-11-11T23:51:40.533Z,6.18
2023-11-11T23:54:08.978Z,6.18
2023-11-11T23:56:36.991Z,6.16
2023-11-11T23:59:05.430Z,6.15
